Taylor Fork

This weather station provides wind speed, gust or max wind speed, and wind direction at 9460 ft. near Pika Point above Sunlight Basin.  

This data can be used with temperature and precipitation data from the Carrot Basin SNOTEL site. If the data below is not displayed or up to date, view data here.

This weather station was purchased by the Friends of the Avalanche Center.

Elevation
9460ft
Jump to table bottom
Date Time Temperature
deg F
RH, % Wind Speed Wind Gust Wind Direction
04/04/18 08:16 18.5 73 10 17 SW - 215
04/04/18 07:16 16.9 69 10 18 S - 202
04/04/18 06:16 17.2 65 13 25 SW - 225
04/04/18 05:16 17.0 65 15 23 SW - 232
04/04/18 04:16 17.0 65 23 35 W - 254
04/04/18 03:16 18.4 66 26 39 W - 261
04/04/18 02:16 16.4 68 20 33 W - 248
04/04/18 01:16 16.6 68 17 27 SW - 247
04/04/18 00:16 16.6 68 18 30 W - 250
04/03/18 23:16 16.8 64 18 34 SW - 233
04/03/18 22:16 17.0 63 18 31 SW - 220
04/03/18 21:16 16.5 64 17 26 SW - 211
04/03/18 20:16 15.8 64 18 29 SW - 213
04/03/18 19:16 15.1 66 17 25 S - 201
04/03/18 18:16 14.9 67 19 28 S - 185
04/03/18 17:16 14.0 67 20 32 S - 170
04/03/18 16:16 14.2 66 15 24 S - 160
04/03/18 15:16 13.0 69 14 25 S - 159
04/03/18 14:16 12.3 70 15 27 S - 171
04/03/18 13:16 11.5 68 14 24 S - 199
04/03/18 12:16 11.7 69 14 23 SW - 226
04/03/18 11:16 10.0 84 13 22 SW - 230
04/03/18 10:16 8.4 89 12 20 SW - 223
04/03/18 09:16 6.4 90 13 21 SW - 222
04/03/18 08:16 3.6 90 12 17 S - 190
04/03/18 07:16 1.0 90 10 19 S - 197
04/03/18 06:16 2.0 91 13 24 W - 288
04/03/18 05:16 2.4 91 14 24 NW - 300
04/03/18 04:16 2.5 91 13 20 NW - 303
04/03/18 03:16 2.5 91 12 20 NW - 303
04/03/18 02:16 2.2 91 14 24 W - 288
04/03/18 01:16 1.7 91 13 22 NW - 302
04/03/18 00:16 3.2 91 15 24 NW - 313
04/02/18 23:16 2.2 91 13 19 NW - 320
04/02/18 22:16 2.2 91 10 17 NW - 323
04/02/18 21:16 2.2 91 10 20 N - 344
04/02/18 20:16 2.4 91 14 26 N - 345
04/02/18 19:16 2.7 91 17 32 N - 345
04/02/18 18:16 2.8 91 17 31 N - 354
04/02/18 17:16 4.2 91 12 26 N - 3
04/02/18 16:16 4.9 91 11 23 N - 3
04/02/18 15:16 6.2 92 13 33 N - 0
04/02/18 14:16 8.6 92 14 38 N - 0
04/02/18 13:16 13.9 90 14 27 N - 345
04/02/18 12:16 17.5 93 14 29 NW - 330
04/02/18 11:16 17.3 95 14 24 NW - 320
04/02/18 10:16 19.6 95 15 26 NW - 299
04/02/18 09:16 18.8 96 10 26 W - 277
04/02/18 08:16 18.2 96 5 13 N - 348
04/02/18 07:16 18.0 96 3 12 NE - 28